sensor_id;sensor_type;location;lat;lon;timestamp;pressure;altitude;pressure_sealevel;temperature;humidity
10145;BME280;5113;41.822;23.564;2023-04-22T00:00:38;-11137.44;;;7.35;100.00
10145;BME280;5113;41.822;23.564;2023-04-22T00:03:44;-11134.78;;;7.25;100.00
10145;BME280;5113;41.822;23.564;2023-04-22T00:06:51;-11149.81;;;7.79;100.00
10145;BME280;5113;41.822;23.564;2023-04-22T00:09:57;-11157.41;;;8.07;100.00
10145;BME280;5113;41.822;23.564;2023-04-22T00:13:03;-11148.25;;;7.74;100.00
10145;BME280;5113;41.822;23.564;2023-04-22T00:16:11;-11154.44;;;7.96;100.00
10145;BME280;5113;41.822;23.564;2023-04-22T00:19:18;-11151.06;;;7.84;100.00
10145;BME280;5113;41.822;23.564;2023-04-22T00:22:25;-11142.50;;;7.53;100.00
10145;BME280;5113;41.822;23.564;2023-04-22T00:25:32;-11140.69;;;7.46;100.00
10145;BME280;5113;41.822;23.564;2023-04-22T00:28:38;-11139.41;;;7.42;100.00
10145;BME280;5113;41.822;23.564;2023-04-22T00:31:46;-11139.97;;;7.44;100.00
10145;BME280;5113;41.822;23.564;2023-04-22T00:34:53;-11150.09;;;7.80;100.00
10145;BME280;5113;41.822;23.564;2023-04-22T00:38:01;-11157.13;;;8.06;100.00
10145;BME280;5113;41.822;23.564;2023-04-22T00:41:07;-11160.91;;;8.19;100.00
10145;BME280;5113;41.822;23.564;2023-04-22T00:44:13;-11157.13;;;8.06;100.00
10145;BME280;5113;41.822;23.564;2023-04-22T00:47:21;-11149.81;;;7.79;100.00
10145;BME280;5113;41.822;23.564;2023-04-22T00:50:30;-11139.28;;;7.41;100.00
10145;BME280;5113;41.822;23.564;2023-04-22T00:53:36;-11132.09;;;7.15;100.00
10145;BME280;5113;41.822;23.564;2023-04-22T00:56:42;-11151.50;;;7.85;100.00
10145;BME280;5113;41.822;23.564;2023-04-22T00:59:49;-11139.28;;;7.41;100.00
10145;BME280;5113;41.822;23.564;2023-04-22T01:02:57;-11143.62;;;7.57;100.00
10145;BME280;5113;41.822;23.564;2023-04-22T01:06:03;-11153.19;;;7.91;100.00
10145;BME280;5113;41.822;23.564;2023-04-22T01:09:10;-11160.06;;;8.16;100.00
10145;BME280;5113;41.822;23.564;2023-04-22T01:12:16;-11147.28;;;7.70;100.00
10145;BME280;5113;41.822;23.564;2023-04-22T01:15:22;-11132.38;;;7.16;100.00
10145;BME280;5113;41.822;23.564;2023-04-22T01:18:30;-11129.16;;;7.05;100.00
10145;BME280;5113;41.822;23.564;2023-04-22T01:21:37;-11131.53;;;7.13;100.00
10145;BME280;5113;41.822;23.564;2023-04-22T01:24:46;-11152.91;;;7.90;100.00
10145;BME280;5113;41.822;23.564;2023-04-22T01:27:52;-11159.09;;;8.13;100.00
10145;BME280;5113;41.822;23.564;2023-04-22T01:30:59;-11159.38;;;8.14;100.00
10145;BME280;5113;41.822;23.564;2023-04-22T01:34:05;-11147.28;;;7.70;100.00
10145;BME280;5113;41.822;23.564;2023-04-22T01:37:11;-11130.28;;;7.09;100.00
10145;BME280;5113;41.822;23.564;2023-04-22T01:40:19;-11131.81;;;7.14;100.00
10145;BME280;5113;41.822;23.564;2023-04-22T01:43:28;-11134.22;;;7.23;100.00
10145;BME280;5113;41.822;23.564;2023-04-22T01:46:34;-11140.53;;;7.46;100.00
10145;BME280;5113;41.822;23.564;2023-04-22T01:49:41;-11148.97;;;7.76;100.00
10145;BME280;5113;41.822;23.564;2023-04-22T01:52:47;-11150.22;;;7.81;100.00
10145;BME280;5113;41.822;23.564;2023-04-22T01:55:55;-11149.09;;;7.77;100.00
10145;BME280;5113;41.822;23.564;2023-04-22T01:59:01;-11147.69;;;7.72;100.00
10145;BME280;5113;41.822;23.564;2023-04-22T02:02:07;-11145.31;;;7.63;100.00
10145;BME280;5113;41.822;23.564;2023-04-22T02:05:13;-11153.47;;;7.92;100.00
10145;BME280;5113;41.822;23.564;2023-04-22T02:08:19;-11155.44;;;8.00;100.00
10145;BME280;5113;41.822;23.564;2023-04-22T02:11:27;-11133.50;;;7.20;100.00
10145;BME280;5113;41.822;23.564;2023-04-22T02:14:33;-11120.44;;;6.73;100.00
10145;BME280;5113;41.822;23.564;2023-04-22T02:17:40;-11125.09;;;6.90;100.00
10145;BME280;5113;41.822;23.564;2023-04-22T02:20:47;-11124.94;;;6.89;100.00
10145;BME280;5113;41.822;23.564;2023-04-22T02:23:52;-11137.44;;;7.35;100.00
10145;BME280;5113;41.822;23.564;2023-04-22T02:27:00;-11143.34;;;7.56;100.00
10145;BME280;5113;41.822;23.564;2023-04-22T02:30:07;-11141.09;;;7.48;100.00
10145;BME280;5113;41.822;23.564;2023-04-22T02:33:14;-11145.31;;;7.63;100.00
10145;BME280;5113;41.822;23.564;2023-04-22T02:36:20;-11144.19;;;7.59;100.00
10145;BME280;5113;41.822;23.564;2023-04-22T02:39:26;-11143.06;;;7.55;100.00
10145;BME280;5113;41.822;23.564;2023-04-22T02:42:34;-11139.69;;;7.43;100.00
10145;BME280;5113;41.822;23.564;2023-04-22T02:45:40;-11130.97;;;7.11;100.00
10145;BME280;5113;41.822;23.564;2023-04-22T02:48:46;-11123.53;;;6.84;100.00
10145;BME280;5113;41.822;23.564;2023-04-22T02:51:52;-11120.88;;;6.75;100.00
10145;BME280;5113;41.822;23.564;2023-04-22T02:54:59;-11127.19;;;6.97;100.00
10145;BME280;5113;41.822;23.564;2023-04-22T02:58:07;-11128.88;;;7.04;100.00
10145;BME280;5113;41.822;23.564;2023-04-22T03:01:13;-11122.97;;;6.82;100.00
10145;BME280;5113;41.822;23.564;2023-04-22T03:04:20;-11136.03;;;7.29;100.00
10145;BME280;5113;41.822;23.564;2023-04-22T03:07:26;-11149.09;;;7.77;100.00
10145;BME280;5113;41.822;23.564;2023-04-22T03:10:33;-11143.62;;;7.57;100.00
10145;BME280;5113;41.822;23.564;2023-04-22T03:13:40;-11147.28;;;7.70;100.00
10145;BME280;5113;41.822;23.564;2023-04-22T03:16:46;-11150.38;;;7.81;100.00
10145;BME280;5113;41.822;23.564;2023-04-22T03:19:52;-11153.47;;;7.92;100.00
10145;BME280;5113;41.822;23.564;2023-04-22T03:22:58;-11148.81;;;7.76;100.00
10145;BME280;5113;41.822;23.564;2023-04-22T03:26:04;-11145.03;;;7.62;100.00
10145;BME280;5113;41.822;23.564;2023-04-22T03:29:12;-11151.34;;;7.85;100.00
10145;BME280;5113;41.822;23.564;2023-04-22T03:32:18;-11150.38;;;7.81;100.00
10145;BME280;5113;41.822;23.564;2023-04-22T03:35:24;-11150.66;;;7.82;100.00
10145;BME280;5113;41.822;23.564;2023-04-22T03:38:30;-11144.19;;;7.59;100.00
10145;BME280;5113;41.822;23.564;2023-04-22T03:41:37;-11120.59;;;6.74;100.00
10145;BME280;5113;41.822;23.564;2023-04-22T03:44:44;-11138.00;;;7.37;100.00
10145;BME280;5113;41.822;23.564;2023-04-22T03:47:51;-11118.91;;;6.68;100.00
10145;BME280;5113;41.822;23.564;2023-04-22T03:50:57;-11127.34;;;6.98;100.00
10145;BME280;5113;41.822;23.564;2023-04-22T03:54:03;-11112.44;;;6.44;100.00
10145;BME280;5113;41.822;23.564;2023-04-22T03:57:09;-11124.81;;;6.89;100.00
10145;BME280;5113;41.822;23.564;2023-04-22T04:00:16;-11125.09;;;6.90;100.00
10145;BME280;5113;41.822;23.564;2023-04-22T04:03:22;-11123.97;;;6.86;100.00
10145;BME280;5113;41.822;23.564;2023-04-22T04:06:32;-11132.94;;;7.18;100.00
10145;BME280;5113;41.822;23.564;2023-04-22T04:09:38;-11126.78;;;6.96;100.00
10145;BME280;5113;41.822;23.564;2023-04-22T04:12:45;-11137.59;;;7.35;100.00
10145;BME280;5113;41.822;23.564;2023-04-22T04:15:52;-11140.25;;;7.45;100.00
10145;BME280;5113;41.822;23.564;2023-04-22T04:18:59;-11147.84;;;7.72;100.00
10145;BME280;5113;41.822;23.564;2023-04-22T04:22:05;-11136.03;;;7.29;100.00
10145;BME280;5113;41.822;23.564;2023-04-22T04:25:12;-11137.44;;;7.35;100.00
10145;BME280;5113;41.822;23.564;2023-04-22T04:28:18;-11151.63;;;7.86;100.00
10145;BME280;5113;41.822;23.564;2023-04-22T04:31:27;-11159.78;;;8.15;100.00
10145;BME280;5113;41.822;23.564;2023-04-22T04:34:33;-11150.66;;;7.82;100.00
10145;BME280;5113;41.822;23.564;2023-04-22T04:37:41;-11167.81;;;8.44;100.00
10145;BME280;5113;41.822;23.564;2023-04-22T04:40:49;-11164.00;;;8.31;100.00
10145;BME280;5113;41.822;23.564;2023-04-22T04:43:55;-11157.25;;;8.06;100.00
10145;BME280;5113;41.822;23.564;2023-04-22T04:47:05;-11161.34;;;8.21;100.00
10145;BME280;5113;41.822;23.564;2023-04-22T04:50:11;-11157.13;;;8.06;100.00
10145;BME280;5113;41.822;23.564;2023-04-22T04:53:18;-11172.59;;;8.62;100.00
10145;BME280;5113;41.822;23.564;2023-04-22T04:56:25;-11170.91;;;8.55;100.00
10145;BME280;5113;41.822;23.564;2023-04-22T04:59:31;-11166.69;;;8.40;100.00
10145;BME280;5113;41.822;23.564;2023-04-22T05:02:39;-11172.59;;;8.62;100.00
10145;BME280;5113;41.822;23.564;2023-04-22T05:05:45;-11183.81;;;9.02;100.00
10145;BME280;5113;41.822;23.564;2023-04-22T05:08:53;-11181.44;;;8.93;100.00
10145;BME280;5113;41.822;23.564;2023-04-22T05:11:59;-11168.09;;;8.45;100.00
10145;BME280;5113;41.822;23.564;2023-04-22T05:15:06;-11181.28;;;8.93;100.00
10145;BME280;5113;41.822;23.564;2023-04-22T05:18:14;-11178.75;;;8.84;100.00
10145;BME280;5113;41.822;23.564;2023-04-22T05:21:21;-11183.25;;;9.00;100.00
10145;BME280;5113;41.822;23.564;2023-04-22T05:24:27;-11176.94;;;8.77;100.00
10145;BME280;5113;41.822;23.564;2023-04-22T05:27:33;-11186.63;;;9.12;100.00
10145;BME280;5113;41.822;23.564;2023-04-22T05:30:39;-11184.81;;;9.06;100.00
10145;BME280;5113;41.822;23.564;2023-04-22T05:33:47;-11200.00;;;9.60;100.00
10145;BME280;5113;41.822;23.564;2023-04-22T05:36:53;-11224.31;;;10.48;100.00
10145;BME280;5113;41.822;23.564;2023-04-22T05:39:59;-11220.09;;;10.33;98.92
10145;BME280;5113;41.822;23.564;2023-04-22T05:43:05;-11241.47;;;11.10;96.87
10145;BME280;5113;41.822;23.564;2023-04-22T05:46:11;-11239.66;;;11.04;99.47
10145;BME280;5113;41.822;23.564;2023-04-22T05:49:19;-11239.22;;;11.02;99.71
10145;BME280;5113;41.822;23.564;2023-04-22T05:52:25;-11237.00;;;10.94;97.82
10145;BME280;5113;41.822;23.564;2023-04-22T05:55:31;-11229.66;;;10.68;99.48
10145;BME280;5113;41.822;23.564;2023-04-22T05:58:38;-11250.50;;;11.43;95.04
10145;BME280;5113;41.822;23.564;2023-04-22T06:01:44;-11256.41;;;11.64;96.16
10145;BME280;5113;41.822;23.564;2023-04-22T06:04:52;-11268.78;;;12.09;92.71
10145;BME280;5113;41.822;23.564;2023-04-22T06:07:58;-11275.13;;;12.32;90.59
10145;BME280;5113;41.822;23.564;2023-04-22T06:11:05;-11269.34;;;12.11;90.42
10145;BME280;5113;41.822;23.564;2023-04-22T06:14:11;-11279.75;;;12.48;87.58
10145;BME280;5113;41.822;23.564;2023-04-22T06:17:17;-11284.41;;;12.65;87.85
10145;BME280;5113;41.822;23.564;2023-04-22T06:20:25;-11284.41;;;12.65;89.25
10145;BME280;5113;41.822;23.564;2023-04-22T06:23:31;-11291.31;;;12.90;84.06
10145;BME280;5113;41.822;23.564;2023-04-22T06:26:37;-11285.97;;;12.71;80.80
10145;BME280;5113;41.822;23.564;2023-04-22T06:29:43;-11288.06;;;12.78;79.67
10145;BME280;5113;41.822;23.564;2023-04-22T06:32:50;-11282.56;;;12.59;80.01
10145;BME280;5113;41.822;23.564;2023-04-22T06:35:58;-11279.19;;;12.46;81.43
10145;BME280;5113;41.822;23.564;2023-04-22T06:39:04;-11304.53;;;13.38;76.82
10145;BME280;5113;41.822;23.564;2023-04-22T06:42:11;-11303.56;;;13.34;75.08
10145;BME280;5113;41.822;23.564;2023-04-22T06:45:17;-11328.63;;;14.25;70.49
10145;BME280;5113;41.822;23.564;2023-04-22T06:48:23;-11341.44;;;14.71;65.15
10145;BME280;5113;41.822;23.564;2023-04-22T06:51:32;-11358.19;;;15.31;68.17
10145;BME280;5113;41.822;23.564;2023-04-22T06:54:38;-11337.06;;;14.55;68.01
10145;BME280;5113;41.822;23.564;2023-04-22T06:57:45;-11328.75;;;14.25;71.13
10145;BME280;5113;41.822;23.564;2023-04-22T07:00:51;-11335.38;;;14.49;68.25
10145;BME280;5113;41.822;23.564;2023-04-22T07:03:57;-11343.97;;;14.80;66.25
10145;BME280;5113;41.822;23.564;2023-04-22T07:07:05;-11361.44;;;15.43;63.16
10145;BME280;5113;41.822;23.564;2023-04-22T07:10:11;-11376.66;;;15.98;62.05
10145;BME280;5113;41.822;23.564;2023-04-22T07:13:18;-11382.56;;;16.19;60.60
10145;BME280;5113;41.822;23.564;2023-04-22T07:16:25;-11363.25;;;15.49;63.58
10145;BME280;5113;41.822;23.564;2023-04-22T07:19:32;-11349.03;;;14.98;63.77
10145;BME280;5113;41.822;23.564;2023-04-22T07:22:40;-11381.59;;;16.15;60.76
10145;BME280;5113;41.822;23.564;2023-04-22T07:25:46;-11366.22;;;15.60;59.14
10145;BME280;5113;41.822;23.564;2023-04-22T07:28:52;-11372.84;;;15.84;60.46
10145;BME280;5113;41.822;23.564;2023-04-22T07:31:59;-11347.34;;;14.92;58.93
10145;BME280;5113;41.822;23.564;2023-04-22T07:35:06;-11406.09;;;17.04;54.17
10145;BME280;5113;41.822;23.564;2023-04-22T07:38:13;-11367.63;;;15.65;57.28
10145;BME280;5113;41.822;23.564;2023-04-22T07:41:19;-11407.09;;;17.07;52.55
10145;BME280;5113;41.822;23.564;2023-04-22T07:44:26;-11392.56;;;16.55;54.27
10145;BME280;5113;41.822;23.564;2023-04-22T07:47:32;-11391.03;;;16.49;53.58
10145;BME280;5113;41.822;23.564;2023-04-22T07:50:38;-11412.03;;;17.25;53.79
10145;BME280;5113;41.822;23.564;2023-04-22T07:53:46;-11359.19;;;15.35;58.31
10145;BME280;5113;41.822;23.564;2023-04-22T07:56:52;-11387.06;;;16.35;54.14
10145;BME280;5113;41.822;23.564;2023-04-22T07:59:59;-11418.09;;;17.47;51.78
10145;BME280;5113;41.822;23.564;2023-04-22T08:03:06;-11400.03;;;16.82;53.43
10145;BME280;5113;41.822;23.564;2023-04-22T08:06:12;-11373.56;;;15.87;52.33
10145;BME280;5113;41.822;23.564;2023-04-22T08:09:20;-11393.84;;;16.60;51.07
10145;BME280;5113;41.822;23.564;2023-04-22T08:12:26;-11400.19;;;16.82;49.56
10145;BME280;5113;41.822;23.564;2023-04-22T08:15:32;-11385.25;;;16.29;51.38
10145;BME280;5113;41.822;23.564;2023-04-22T08:18:38;-11418.66;;;17.49;49.67
10145;BME280;5113;41.822;23.564;2023-04-22T08:21:45;-11413.84;;;17.32;48.12
10145;BME280;5113;41.822;23.564;2023-04-22T08:24:53;-11419.22;;;17.51;48.86
10145;BME280;5113;41.822;23.564;2023-04-22T08:27:59;-11431.19;;;17.94;47.97
10145;BME280;5113;41.822;23.564;2023-04-22T08:31:06;-11432.47;;;17.99;46.52
10145;BME280;5113;41.822;23.564;2023-04-22T08:34:13;-11434.84;;;18.07;45.33
10145;BME280;5113;41.822;23.564;2023-04-22T08:37:19;-11436.13;;;18.12;42.26
10145;BME280;5113;41.822;23.564;2023-04-22T08:40:27;-11437.53;;;18.17;41.40
10145;BME280;5113;41.822;23.564;2023-04-22T08:43:33;-11453.34;;;18.74;39.74
10145;BME280;5113;41.822;23.564;2023-04-22T08:46:42;-11469.97;;;19.34;40.68
10145;BME280;5113;41.822;23.564;2023-04-22T08:49:53;-11456.16;;;18.84;38.77
10145;BME280;5113;41.822;23.564;2023-04-22T08:53:00;-11451.91;;;18.69;37.85
10145;BME280;5113;41.822;23.564;2023-04-22T08:56:08;-11469.97;;;19.34;38.37
10145;BME280;5113;41.822;23.564;2023-04-22T08:59:15;-11444.72;;;18.43;38.51
10145;BME280;5113;41.822;23.564;2023-04-22T09:02:23;-11467.28;;;19.24;38.21
10145;BME280;5113;41.822;23.564;2023-04-22T09:05:32;-11456.72;;;18.86;37.99
10145;BME280;5113;41.822;23.564;2023-04-22T09:08:38;-11475.19;;;19.53;37.25
10145;BME280;5113;41.822;23.564;2023-04-22T09:11:46;-11434.72;;;18.07;37.81
10145;BME280;5113;41.822;23.564;2023-04-22T09:14:52;-11435.56;;;18.10;37.61
10145;BME280;5113;41.822;23.564;2023-04-22T09:17:59;-11435.84;;;18.11;37.19
10145;BME280;5113;41.822;23.564;2023-04-22T09:21:07;-11489.84;;;20.05;37.42
10145;BME280;5113;41.822;23.564;2023-04-22T09:24:15;-11448.38;;;18.56;37.31
10145;BME280;5113;41.822;23.564;2023-04-22T09:27:24;-11467.72;;;19.26;37.02
10145;BME280;5113;41.822;23.564;2023-04-22T09:30:31;-11498.59;;;20.37;35.40
10145;BME280;5113;41.822;23.564;2023-04-22T09:33:38;-11449.66;;;18.61;36.17
10145;BME280;5113;41.822;23.564;2023-04-22T09:36:44;-11462.06;;;19.05;36.44
10145;BME280;5113;41.822;23.564;2023-04-22T09:39:50;-11450.22;;;18.63;37.07
10145;BME280;5113;41.822;23.564;2023-04-22T09:43:00;-11466.31;;;19.21;36.82
10145;BME280;5113;41.822;23.564;2023-04-22T09:46:08;-11492.53;;;20.15;35.05
10145;BME280;5113;41.822;23.564;2023-04-22T09:49:15;-11455.03;;;18.80;35.89
10145;BME280;5113;41.822;23.564;2023-04-22T09:52:22;-11486.47;;;19.93;36.65
10145;BME280;5113;41.822;23.564;2023-04-22T09:55:32;-11525.97;;;21.35;34.18
10145;BME280;5113;41.822;23.564;2023-04-22T09:58:42;-11453.34;;;18.74;36.80
10145;BME280;5113;41.822;23.564;2023-04-22T10:01:50;-11491.53;;;20.11;36.60
10145;BME280;5113;41.822;23.564;2023-04-22T10:04:57;-11457.41;;;18.89;39.91
10145;BME280;5113;41.822;23.564;2023-04-22T10:08:05;-11465.16;;;19.17;40.31
10145;BME280;5113;41.822;23.564;2023-04-22T10:11:11;-11475.19;;;19.53;40.29
10145;BME280;5113;41.822;23.564;2023-04-22T10:14:21;-11484.22;;;19.85;39.26
10145;BME280;5113;41.822;23.564;2023-04-22T10:17:29;-11521.03;;;21.18;37.32
10145;BME280;5113;41.822;23.564;2023-04-22T10:20:38;-11491.13;;;20.10;39.50
10145;BME280;5113;41.822;23.564;2023-04-22T10:23:46;-11459.25;;;18.95;40.72
10145;BME280;5113;41.822;23.564;2023-04-22T10:26:54;-11470.81;;;19.37;39.67
10145;BME280;5113;41.822;23.564;2023-04-22T10:30:03;-11442.91;;;18.36;40.33
10145;BME280;5113;41.822;23.564;2023-04-22T10:33:37;-11457.00;;;18.87;39.78
10145;BME280;5113;41.822;23.564;2023-04-22T10:36:54;-11438.25;;;18.20;39.96
10145;BME280;5113;41.822;23.564;2023-04-22T10:40:06;-11436.56;;;18.13;38.79
10145;BME280;5113;41.822;23.564;2023-04-22T10:43:13;-11441.34;;;18.31;37.07
10145;BME280;5113;41.822;23.564;2023-04-22T10:46:58;-11426.69;;;17.78;37.50
10145;BME280;5113;41.822;23.564;2023-04-22T10:50:11;-11428.53;;;17.85;39.93
10145;BME280;5113;41.822;23.564;2023-04-22T10:53:34;-11415.12;;;17.36;41.26
10145;BME280;5113;41.822;23.564;2023-04-22T10:56:59;-11435.00;;;18.08;41.05
10145;BME280;5113;41.822;23.564;2023-04-22T11:00:26;-11452.19;;;18.70;40.61
10145;BME280;5113;41.822;23.564;2023-04-22T11:03:51;-11444.03;;;18.40;40.42
10145;BME280;5113;41.822;23.564;2023-04-22T11:07:12;-11443.47;;;18.38;40.38
10145;BME280;5113;41.822;23.564;2023-04-22T11:10:36;-11439.78;;;18.25;37.80
10145;BME280;5113;41.822;23.564;2023-04-22T11:13:47;-11424.84;;;17.71;35.30
10145;BME280;5113;41.822;23.564;2023-04-22T11:16:55;-11444.16;;;18.41;35.60
10145;BME280;5113;41.822;23.564;2023-04-22T11:20:05;-11428.38;;;17.84;40.78
10145;BME280;5113;41.822;23.564;2023-04-22T11:23:16;-11423.31;;;17.66;43.24
10145;BME280;5113;41.822;23.564;2023-04-22T11:26:32;-11414.41;;;17.34;43.60
10145;BME280;5113;41.822;23.564;2023-04-22T11:29:39;-11420.34;;;17.55;44.43
10145;BME280;5113;41.822;23.564;2023-04-22T11:32:47;-11431.34;;;17.95;44.61
10145;BME280;5113;41.822;23.564;2023-04-22T11:35:54;-11421.19;;;17.58;44.03
10145;BME280;5113;41.822;23.564;2023-04-22T11:39:07;-11415.25;;;17.37;43.01
10145;BME280;5113;41.822;23.564;2023-04-22T11:42:15;-11400.88;;;16.85;44.69
10145;BME280;5113;41.822;23.564;2023-04-22T11:45:25;-11389.63;;;16.44;46.64
10145;BME280;5113;41.822;23.564;2023-04-22T11:48:32;-11359.87;;;15.37;47.39
10145;BME280;5113;41.822;23.564;2023-04-22T11:51:52;-11371.56;;;15.79;48.36
10145;BME280;5113;41.822;23.564;2023-04-22T11:54:58;-11356.94;;;15.27;49.41
10145;BME280;5113;41.822;23.564;2023-04-22T11:58:06;-11337.06;;;14.55;53.25
10145;BME280;5113;41.822;23.564;2023-04-22T12:01:14;-11331.84;;;14.36;54.42
10145;BME280;5113;41.822;23.564;2023-04-22T12:04:20;-11356.66;;;15.26;55.12
10145;BME280;5113;41.822;23.564;2023-04-22T12:07:28;-11369.88;;;15.73;53.77
10145;BME280;5113;41.822;23.564;2023-04-22T12:10:41;-11380.47;;;16.11;54.06
10145;BME280;5113;41.822;23.564;2023-04-22T12:13:47;-11374.13;;;15.89;53.21
10145;BME280;5113;41.822;23.564;2023-04-22T12:16:55;-11381.59;;;16.15;49.28
10145;BME280;5113;41.822;23.564;2023-04-22T12:20:02;-11392.84;;;16.56;51.80
10145;BME280;5113;41.822;23.564;2023-04-22T12:23:14;-11395.25;;;16.65;51.49
10145;BME280;5113;41.822;23.564;2023-04-22T12:26:22;-11393.00;;;16.57;51.72
10145;BME280;5113;41.822;23.564;2023-04-22T12:29:32;-11401.31;;;16.87;51.40
10145;BME280;5113;41.822;23.564;2023-04-22T12:32:38;-11428.81;;;17.86;48.35
10145;BME280;5113;41.822;23.564;2023-04-22T12:35:44;-11426.53;;;17.77;42.24
10145;BME280;5113;41.822;23.564;2023-04-22T12:38:53;-11454.59;;;18.78;40.83
10145;BME280;5113;41.822;23.564;2023-04-22T12:42:00;-11446.97;;;18.51;41.60
10145;BME280;5113;41.822;23.564;2023-04-22T12:45:07;-11481.09;;;19.74;40.85
10145;BME280;5113;41.822;23.564;2023-04-22T12:48:14;-11474.47;;;19.50;40.71
10145;BME280;5113;41.822;23.564;2023-04-22T12:51:20;-11475.34;;;19.53;38.13
10145;BME280;5113;41.822;23.564;2023-04-22T12:54:28;-11469.41;;;19.32;37.97
10145;BME280;5113;41.822;23.564;2023-04-22T12:57:34;-11465.16;;;19.17;36.59
10145;BME280;5113;41.822;23.564;2023-04-22T13:00:40;-11473.06;;;19.45;37.45
10145;BME280;5113;41.822;23.564;2023-04-22T13:03:46;-11437.69;;;18.18;36.59
10145;BME280;5113;41.822;23.564;2023-04-22T13:06:57;-11459.69;;;18.97;38.61
10145;BME280;5113;41.822;23.564;2023-04-22T13:10:06;-11453.19;;;18.73;37.95
10145;BME280;5113;41.822;23.564;2023-04-22T13:13:13;-11454.88;;;18.79;38.26
10145;BME280;5113;41.822;23.564;2023-04-22T13:16:22;-11404.97;;;17.00;42.30
10145;BME280;5113;41.822;23.564;2023-04-22T13:19:29;-11411.88;;;17.25;44.06
10145;BME280;5113;41.822;23.564;2023-04-22T13:22:35;-11431.63;;;17.96;44.79
10145;BME280;5113;41.822;23.564;2023-04-22T13:25:44;-11439.22;;;18.23;43.71
10145;BME280;5113;41.822;23.564;2023-04-22T13:28:51;-11439.78;;;18.25;43.48
10145;BME280;5113;41.822;23.564;2023-04-22T13:31:57;-11433.31;;;18.02;44.68
10145;BME280;5113;41.822;23.564;2023-04-22T13:35:04;-11429.09;;;17.87;44.25
10145;BME280;5113;41.822;23.564;2023-04-22T13:38:11;-11423.59;;;17.67;43.99
10145;BME280;5113;41.822;23.564;2023-04-22T13:41:19;-11419.78;;;17.53;45.94
10145;BME280;5113;41.822;23.564;2023-04-22T13:44:25;-11406.53;;;17.05;46.10
10145;BME280;5113;41.822;23.564;2023-04-22T13:47:31;-11402.28;;;16.90;45.93
10145;BME280;5113;41.822;23.564;2023-04-22T13:50:38;-11390.88;;;16.49;48.48
10145;BME280;5113;41.822;23.564;2023-04-22T13:53:46;-11372.72;;;15.83;51.25
10145;BME280;5113;41.822;23.564;2023-04-22T13:56:53;-11372.16;;;15.81;51.63
10145;BME280;5113;41.822;23.564;2023-04-22T14:00:00;-11366.66;;;15.62;52.16
10145;BME280;5113;41.822;23.564;2023-04-22T14:03:06;-11357.22;;;15.28;51.81
10145;BME280;5113;41.822;23.564;2023-04-22T14:06:13;-11360.59;;;15.40;52.77
10145;BME280;5113;41.822;23.564;2023-04-22T14:09:19;-11356.66;;;15.26;52.91
10145;BME280;5113;41.822;23.564;2023-04-22T14:12:27;-11350.88;;;15.05;54.47
10145;BME280;5113;41.822;23.564;2023-04-22T14:15:33;-11357.34;;;15.28;57.48
10145;BME280;5113;41.822;23.564;2023-04-22T14:18:40;-11360.03;;;15.38;58.27
10145;BME280;5113;41.822;23.564;2023-04-22T14:21:46;-11356.06;;;15.24;58.19
10145;BME280;5113;41.822;23.564;2023-04-22T14:24:52;-11354.38;;;15.17;57.90
10145;BME280;5113;41.822;23.564;2023-04-22T14:28:00;-11345.81;;;14.86;58.62
10145;BME280;5113;41.822;23.564;2023-04-22T14:31:07;-11345.66;;;14.86;58.77
10145;BME280;5113;41.822;23.564;2023-04-22T14:34:13;-11341.16;;;14.70;62.97
10145;BME280;5113;41.822;23.564;2023-04-22T14:37:19;-11340.31;;;14.67;63.47
10145;BME280;5113;41.822;23.564;2023-04-22T14:40:28;-11336.94;;;14.54;65.82
10145;BME280;5113;41.822;23.564;2023-04-22T14:43:36;-11338.63;;;14.61;66.63
10145;BME280;5113;41.822;23.564;2023-04-22T14:46:42;-11330.72;;;14.32;69.63
10145;BME280;5113;41.822;23.564;2023-04-22T14:49:49;-11327.63;;;14.21;70.67
10145;BME280;5113;41.822;23.564;2023-04-22T14:52:55;-11324.81;;;14.11;70.92
10145;BME280;5113;41.822;23.564;2023-04-22T14:56:02;-11322.41;;;14.02;73.51
10145;BME280;5113;41.822;23.564;2023-04-22T14:59:10;-11320.59;;;13.96;74.15
10145;BME280;5113;41.822;23.564;2023-04-22T15:02:17;-11321.72;;;14.00;74.96
10145;BME280;5113;41.822;23.564;2023-04-22T15:05:23;-11321.16;;;13.98;72.15
10145;BME280;5113;41.822;23.564;2023-04-22T15:08:29;-11316.94;;;13.82;75.22
10145;BME280;5113;41.822;23.564;2023-04-22T15:11:35;-11290.75;;;12.88;93.05
10145;BME280;5113;41.822;23.564;2023-04-22T15:14:42;-11288.19;;;12.79;100.00
10145;BME280;5113;41.822;23.564;2023-04-22T15:17:49;-11282.28;;;12.57;100.00
10145;BME280;5113;41.822;23.564;2023-04-22T15:20:56;-11268.50;;;12.08;100.00
10145;BME280;5113;41.822;23.564;2023-04-22T15:24:02;-11260.06;;;11.77;100.00
10145;BME280;5113;41.822;23.564;2023-04-22T15:27:08;-11255.56;;;11.61;100.00
10145;BME280;5113;41.822;23.564;2023-04-22T15:30:16;-11245.00;;;11.23;100.00
10145;BME280;5113;41.822;23.564;2023-04-22T15:33:22;-11247.69;;;11.33;100.00
10145;BME280;5113;41.822;23.564;2023-04-22T15:36:29;-11255.00;;;11.59;100.00
10145;BME280;5113;41.822;23.564;2023-04-22T15:39:35;-11259.63;;;11.76;100.00
10145;BME280;5113;41.822;23.564;2023-04-22T15:42:42;-11262.03;;;11.84;100.00
10145;BME280;5113;41.822;23.564;2023-04-22T15:45:49;-11256.81;;;11.66;100.00
10145;BME280;5113;41.822;23.564;2023-04-22T15:48:56;-11256.41;;;11.64;100.00
10145;BME280;5113;41.822;23.564;2023-04-22T15:52:02;-11251.06;;;11.45;100.00
10145;BME280;5113;41.822;23.564;2023-04-22T15:55:09;-11246.56;;;11.29;100.00
10145;BME280;5113;41.822;23.564;2023-04-22T15:58:15;-11245.28;;;11.24;100.00
10145;BME280;5113;41.822;23.564;2023-04-22T16:01:23;-11246.97;;;11.30;100.00
10145;BME280;5113;41.822;23.564;2023-04-22T16:04:30;-11245.00;;;11.23;100.00
10145;BME280;5113;41.822;23.564;2023-04-22T16:07:36;-11240.22;;;11.06;100.00
10145;BME280;5113;41.822;23.564;2023-04-22T16:10:42;-11239.94;;;11.05;100.00
10145;BME280;5113;41.822;23.564;2023-04-22T16:13:48;-11242.31;;;11.13;100.00
10145;BME280;5113;41.822;23.564;2023-04-22T16:16:56;-11245.84;;;11.26;100.00
10145;BME280;5113;41.822;23.564;2023-04-22T16:20:03;-11251.91;;;11.48;100.00